createdAt,value
2023-01-08T00:01:24.278Z,95709.70
2023-01-08T00:03:53.175Z,95713.88
2023-01-08T00:06:22.212Z,95717.07
2023-01-08T00:08:50.405Z,95717.63
2023-01-08T00:11:18.692Z,95712.89
2023-01-08T00:13:46.871Z,95714.27
2023-01-08T00:16:17.377Z,95711.91
2023-01-08T00:18:46.953Z,95711.41
2023-01-08T00:21:15.074Z,95715.83
2023-01-08T00:23:43.208Z,95713.27
2023-01-08T00:26:11.681Z,95711.30
2023-01-08T00:28:41.027Z,95710.21
2023-01-08T00:31:11.779Z,95709.96
2023-01-08T00:33:41.375Z,95708.47
2023-01-08T00:36:15.763Z,95706.53
2023-01-08T00:38:45.050Z,95709.42
2023-01-08T00:41:14.954Z,95705.69
2023-01-08T00:43:43.315Z,95706.16
2023-01-08T00:46:11.517Z,95708.84
2023-01-08T00:48:39.721Z,95709.54
2023-01-08T00:51:09.668Z,95715.33
2023-01-08T00:53:40.601Z,95716.95
2023-01-08T00:56:10.869Z,95719.83
2023-01-08T00:58:39.262Z,95713.94
2023-01-08T01:01:12.627Z,95717.02
2023-01-08T01:03:41.953Z,95715.89
2023-01-08T01:06:11.949Z,95713.58
2023-01-08T01:08:40.871Z,95716.05
2023-01-08T01:11:18.136Z,95717.55
2023-01-08T01:13:46.563Z,95719.91
2023-01-08T01:16:15.185Z,95717.85
2023-01-08T01:18:43.860Z,95719.58
2023-01-08T01:21:32.897Z,95719.14
2023-01-08T01:24:06.721Z,95724.55
2023-01-08T01:26:34.920Z,95716.23
2023-01-08T01:29:03.344Z,95712.48
2023-01-08T01:31:32.767Z,95712.77
2023-01-08T01:34:00.860Z,95716.75
2023-01-08T01:36:29.561Z,95710.95
2023-01-08T01:38:58.476Z,95706.64
2023-01-08T01:41:31.265Z,95698.33
2023-01-08T01:44:20.409Z,95705.91
2023-01-08T01:46:50.091Z,95704.36
2023-01-08T01:49:22.256Z,95699.18
2023-01-08T01:51:56.025Z,95695.39
2023-01-08T01:54:25.091Z,95698.86
2023-01-08T01:56:53.262Z,95692.17
2023-01-08T01:59:21.603Z,95687.67
2023-01-08T02:01:50.353Z,95689.71
2023-01-08T02:04:18.828Z,95687.65
2023-01-08T02:06:57.856Z,95683.41
2023-01-08T02:09:41.883Z,95686.31
2023-01-08T02:12:17.125Z,95678.84
2023-01-08T02:15:08.176Z,95673.33
2023-01-08T02:17:46.594Z,95675.88
2023-01-08T02:20:17.659Z,95675.34
2023-01-08T02:22:57.135Z,95677.70
2023-01-08T02:25:57.921Z,95675.38
2023-01-08T02:28:26.822Z,95667.77
2023-01-08T02:30:55.644Z,95663.29
2023-01-08T02:33:27.163Z,95665.58
2023-01-08T02:36:20.258Z,95662.66
2023-01-08T02:39:00.349Z,95661.26
2023-01-08T02:41:40.152Z,95659.33
2023-01-08T02:44:13.025Z,95655.85
2023-01-08T02:46:42.216Z,95657.95
2023-01-08T02:49:13.986Z,95652.15
2023-01-08T02:51:50.012Z,95657.93
2023-01-08T02:54:31.579Z,95654.59
2023-01-08T02:57:07.389Z,95651.20
2023-01-08T02:59:38.629Z,95648.02
2023-01-08T03:02:07.533Z,95646.48
2023-01-08T03:04:49.298Z,95643.74
2023-01-08T03:07:17.480Z,95643.16
2023-01-08T03:09:46.127Z,95639.94
2023-01-08T03:12:24.140Z,95640.20
2023-01-08T03:15:01.984Z,95640.19
2023-01-08T03:17:33.465Z,95636.84
2023-01-08T03:20:12.070Z,95639.20
2023-01-08T03:22:44.297Z,95644.52
2023-01-08T03:25:14.385Z,95637.10
2023-01-08T03:27:49.979Z,95642.18
2023-01-08T03:30:19.446Z,95634.05
2023-01-08T03:32:49.211Z,95636.93
2023-01-08T03:35:23.062Z,95631.95
2023-01-08T03:37:59.666Z,95639.06
2023-01-08T03:40:36.959Z,95635.91
2023-01-08T03:43:05.091Z,95640.06
2023-01-08T03:45:33.498Z,95635.80
2023-01-08T03:48:04.636Z,95637.61
2023-01-08T03:50:34.123Z,95633.15
2023-01-08T03:53:02.242Z,95634.99
2023-01-08T03:55:30.302Z,95636.80
2023-01-08T03:57:58.430Z,95638.59
2023-01-08T04:00:26.712Z,95642.14
2023-01-08T04:02:54.820Z,95637.55
2023-01-08T04:05:23.081Z,95640.86
2023-01-08T04:07:51.245Z,95642.38
2023-01-08T04:10:19.301Z,95640.55
2023-01-08T04:12:47.359Z,95641.63
2023-01-08T04:15:15.886Z,95637.61
2023-01-08T04:17:44.137Z,95634.73
2023-01-08T04:20:12.439Z,95641.88
2023-01-08T04:22:40.726Z,95640.23
2023-01-08T04:25:08.981Z,95645.65
2023-01-08T04:27:37.577Z,95644.98
2023-01-08T04:30:06.248Z,95639.34
2023-01-08T04:32:34.473Z,95636.27
2023-01-08T04:35:02.588Z,95634.35
2023-01-08T04:37:30.655Z,95640.85
2023-01-08T04:39:58.823Z,95634.25
2023-01-08T04:42:27.040Z,95634.33
2023-01-08T04:44:55.233Z,95633.00
2023-01-08T04:47:23.326Z,95632.93
2023-01-08T04:49:51.458Z,95629.56
2023-01-08T04:52:19.606Z,95628.83
2023-01-08T04:54:47.709Z,95625.27
2023-01-08T04:57:15.762Z,95623.73
2023-01-08T04:59:43.926Z,95619.30
2023-01-08T05:02:12.429Z,95617.19
2023-01-08T05:04:40.726Z,95615.95
2023-01-08T05:07:08.959Z,95617.75
2023-01-08T05:09:36.978Z,95621.42
2023-01-08T05:12:05.388Z,95616.35
2023-01-08T05:14:33.601Z,95613.13
2023-01-08T05:17:01.806Z,95614.45
2023-01-08T05:19:29.843Z,95613.15
2023-01-08T05:21:58.376Z,95613.31
2023-01-08T05:24:26.469Z,95616.17
2023-01-08T05:26:54.553Z,95618.47
2023-01-08T05:29:22.734Z,95615.83
2023-01-08T05:31:50.980Z,95622.92
2023-01-08T05:34:19.252Z,95620.17
2023-01-08T05:36:47.426Z,95621.42
2023-01-08T05:39:15.580Z,95623.41
2023-01-08T05:41:44.043Z,95614.02
2023-01-08T05:44:12.307Z,95614.17
2023-01-08T05:46:40.769Z,95620.41
2023-01-08T05:49:09.004Z,95623.69
2023-01-08T05:51:37.177Z,95622.35
2023-01-08T05:54:05.259Z,95623.89
2023-01-08T05:56:33.369Z,95623.20
2023-01-08T05:59:01.721Z,95625.67
2023-01-08T06:01:30.005Z,95622.86
2023-01-08T06:03:59.155Z,95627.47
2023-01-08T06:06:27.410Z,95628.46
2023-01-08T06:08:55.540Z,95630.29
2023-01-08T06:11:23.645Z,95629.71
2023-01-08T06:13:51.735Z,95635.52
2023-01-08T06:16:21.118Z,95634.63
2023-01-08T06:18:49.356Z,95634.67
2023-01-08T06:21:17.557Z,95635.35
2023-01-08T06:23:45.688Z,95637.85
2023-01-08T06:26:13.846Z,95642.56
2023-01-08T06:28:41.950Z,95642.64
2023-01-08T06:31:10.153Z,95636.23
2023-01-08T06:33:38.563Z,95637.89
2023-01-08T06:36:07.064Z,95640.38
2023-01-08T06:38:36.349Z,95637.52
2023-01-08T06:41:06.781Z,95638.00
2023-01-08T06:43:36.058Z,95635.45
2023-01-08T06:46:06.001Z,95635.98
2023-01-08T06:48:34.519Z,95638.02
2023-01-08T06:51:04.192Z,95645.77
2023-01-08T06:53:32.344Z,95645.19
2023-01-08T06:56:00.545Z,95644.29
2023-01-08T06:58:28.983Z,95641.62
2023-01-08T07:00:59.099Z,95647.33
2023-01-08T07:03:27.469Z,95649.04
2023-01-08T07:05:56.954Z,95648.91
2023-01-08T07:08:25.088Z,95647.61
2023-01-08T07:10:53.328Z,95646.88
2023-01-08T07:13:23.996Z,95656.80
2023-01-08T07:15:52.262Z,95653.31
2023-01-08T07:18:20.479Z,95656.39
2023-01-08T07:20:49.601Z,95654.20
2023-01-08T07:23:17.739Z,95652.33
2023-01-08T07:25:47.582Z,95650.17
2023-01-08T07:28:15.741Z,95657.29
2023-01-08T07:30:44.906Z,95661.46
2023-01-08T07:33:13.162Z,95664.43
2023-01-08T07:35:41.247Z,95666.77
2023-01-08T07:38:09.337Z,95672.51
2023-01-08T07:40:39.349Z,95674.66
2023-01-08T07:43:12.495Z,95673.85
2023-01-08T07:45:41.437Z,95677.80
2023-01-08T07:48:15.984Z,95675.36
2023-01-08T07:50:44.688Z,95673.72
2023-01-08T07:53:16.998Z,95668.50
2023-01-08T07:55:45.205Z,95672.65
2023-01-08T07:58:14.943Z,95670.77
2023-01-08T08:00:43.330Z,95669.40
2023-01-08T08:03:11.802Z,95658.19
2023-01-08T08:05:41.373Z,95664.00
2023-01-08T08:08:11.095Z,95667.80
2023-01-08T08:10:40.650Z,95664.33
2023-01-08T08:13:09.452Z,95664.58
2023-01-08T08:15:39.743Z,95665.95
2023-01-08T08:18:08.339Z,95672.11
2023-01-08T08:20:37.267Z,95678.17
2023-01-08T08:23:14.638Z,95674.02
2023-01-08T08:25:43.379Z,95674.05
2023-01-08T08:28:12.579Z,95668.79
2023-01-08T08:30:42.684Z,95668.55
2023-01-08T08:33:11.503Z,95672.59
2023-01-08T08:35:40.585Z,95671.94
2023-01-08T08:38:09.082Z,95677.04
2023-01-08T08:40:37.139Z,95675.53
2023-01-08T08:43:06.063Z,95679.64
2023-01-08T08:45:34.287Z,95684.41
2023-01-08T08:48:02.406Z,95684.67
2023-01-08T08:50:30.888Z,95681.80
2023-01-08T08:53:00.791Z,95677.83
2023-01-08T08:55:29.305Z,95676.51
2023-01-08T08:58:11.080Z,95677.84
2023-01-08T09:00:43.757Z,95674.27
2023-01-08T09:03:15.885Z,95671.31
2023-01-08T09:05:44.268Z,95676.30
2023-01-08T09:08:12.974Z,95666.48
2023-01-08T09:10:42.721Z,95662.88
2023-01-08T09:13:11.334Z,95659.16
2023-01-08T09:15:39.942Z,95658.20
2023-01-08T09:18:08.190Z,95653.99
2023-01-08T09:20:36.772Z,95648.42
2023-01-08T09:23:05.197Z,95644.58
2023-01-08T09:25:33.374Z,95639.85
2023-01-08T09:28:04.203Z,95642.00
2023-01-08T09:30:33.133Z,95637.04
2023-01-08T09:33:03.320Z,95632.30
2023-01-08T09:35:32.982Z,95631.18
2023-01-08T09:38:01.384Z,95631.06
2023-01-08T09:40:38.970Z,95630.98
2023-01-08T09:43:14.787Z,95631.73
2023-01-08T09:45:46.128Z,95625.73
2023-01-08T09:48:17.769Z,95622.97
2023-01-08T09:50:48.228Z,95618.96
2023-01-08T09:53:18.486Z,95614.39
2023-01-08T09:56:08.688Z,95614.62
2023-01-08T09:58:40.611Z,95621.95
2023-01-08T10:01:13.703Z,95618.80
2023-01-08T10:03:45.292Z,95621.73
2023-01-08T10:06:16.075Z,95613.15
2023-01-08T10:11:15.665Z,95614.19
2023-01-08T10:13:49.921Z,95607.89
2023-01-08T10:16:31.363Z,95603.13
2023-01-08T10:19:00.423Z,95599.50
2023-01-08T10:21:39.957Z,95598.69
2023-01-08T10:24:08.433Z,95597.38
2023-01-08T10:26:38.555Z,95594.19
2023-01-08T10:29:14.409Z,95592.59
2023-01-08T10:31:57.389Z,95592.37
2023-01-08T10:34:27.359Z,95590.15
2023-01-08T10:36:56.651Z,95587.45
2023-01-08T10:39:30.813Z,95585.34
2023-01-08T10:42:04.219Z,95593.43
2023-01-08T10:44:33.524Z,95590.17
2023-01-08T10:47:01.954Z,95588.68
2023-01-08T10:49:33.209Z,95585.36
2023-01-08T10:52:01.455Z,95585.01
2023-01-08T10:54:34.343Z,95576.67
2023-01-08T10:57:03.229Z,95581.15
2023-01-08T10:59:32.222Z,95578.38
2023-01-08T11:02:29.736Z,95574.63
2023-01-08T11:04:59.665Z,95576.21
2023-01-08T11:07:29.261Z,95571.27
2023-01-08T11:10:41.901Z,95566.73
2023-01-08T11:13:19.731Z,95561.88
2023-01-08T11:16:08.064Z,95557.94
2023-01-08T11:18:48.726Z,95561.40
2023-01-08T11:21:22.382Z,95562.14
2023-01-08T11:24:16.589Z,95562.23
2023-01-08T11:26:55.087Z,95560.84
2023-01-08T11:29:41.782Z,95560.84
2023-01-08T11:32:16.159Z,95561.70
2023-01-08T11:35:06.003Z,95558.52
2023-01-08T11:37:37.478Z,95558.69
2023-01-08T11:40:31.080Z,95556.05
2023-01-08T11:43:28.259Z,95555.29
2023-01-08T11:46:03.565Z,95552.77
2023-01-08T11:49:15.376Z,95557.67
2023-01-08T11:51:52.769Z,95555.46
2023-01-08T11:55:13.931Z,95556.11
2023-01-08T11:58:24.787Z,95560.98
2023-01-08T12:00:57.811Z,95560.83
2023-01-08T12:03:44.336Z,95560.84
2023-01-08T12:07:00.529Z,95555.26
2023-01-08T12:09:46.098Z,95552.73
2023-01-08T12:12:33.072Z,95551.89
2023-01-08T12:15:19.261Z,95547.13
2023-01-08T12:18:15.741Z,95549.98
2023-01-08T12:20:52.213Z,95547.02
2023-01-08T12:23:35.095Z,95551.44
2023-01-08T12:26:40.324Z,95550.45
2023-01-08T12:29:25.069Z,95549.75
2023-01-08T12:32:16.278Z,95551.45
2023-01-08T12:35:25.007Z,95544.12
2023-01-08T12:38:09.807Z,95538.96
2023-01-08T12:40:50.127Z,95533.62
2023-01-08T12:43:25.417Z,95530.95
2023-01-08T12:45:57.891Z,95528.70
2023-01-08T12:48:30.334Z,95525.00
2023-01-08T12:51:43.648Z,95527.23
2023-01-08T12:54:17.686Z,95527.04
2023-01-08T12:57:16.355Z,95527.48
2023-01-08T12:59:50.357Z,95521.29
2023-01-08T13:02:34.888Z,95523.89
2023-01-08T13:05:28.436Z,95525.26
2023-01-08T13:07:59.622Z,95522.20
2023-01-08T13:10:48.616Z,95519.91
2023-01-08T13:13:33.767Z,95522.86
2023-01-08T13:16:11.266Z,95520.53
2023-01-08T13:18:39.812Z,95514.34
2023-01-08T13:21:11.947Z,95511.35
2023-01-08T13:23:40.156Z,95509.02
2023-01-08T13:26:11.145Z,95507.26
2023-01-08T13:28:45.349Z,95507.23
2023-01-08T13:31:22.519Z,95507.88
2023-01-08T13:33:54.754Z,95505.93
2023-01-08T13:36:30.326Z,95502.73
2023-01-08T13:39:10.539Z,95502.88
2023-01-08T13:41:46.258Z,95500.08
2023-01-08T13:44:28.276Z,95491.50
2023-01-08T13:47:02.686Z,95491.85
2023-01-08T13:49:42.421Z,95489.19
2023-01-08T13:52:44.163Z,95485.23
2023-01-08T13:55:26.862Z,95487.30
2023-01-08T13:58:02.786Z,95486.58
2023-01-08T14:00:32.574Z,95479.98
2023-01-08T14:03:00.811Z,95472.88
2023-01-08T14:05:34.777Z,95471.47
2023-01-08T14:08:02.992Z,95469.42
2023-01-08T14:10:31.766Z,95473.14
2023-01-08T14:13:08.769Z,95475.22
2023-01-08T14:15:38.939Z,95470.54
2023-01-08T14:18:07.325Z,95465.65
2023-01-08T14:20:38.881Z,95460.54
2023-01-08T14:23:27.916Z,95465.27
2023-01-08T14:26:01.267Z,95464.20
2023-01-08T14:28:29.388Z,95458.35
2023-01-08T14:30:58.328Z,95452.52
2023-01-08T14:33:34.518Z,95453.46
2023-01-08T14:36:06.539Z,95453.33
2023-01-08T14:38:34.771Z,95458.17
2023-01-08T14:41:08.037Z,95459.82
2023-01-08T14:43:41.568Z,95462.88
2023-01-08T14:46:21.417Z,95458.79
2023-01-08T14:48:52.304Z,95456.13
2023-01-08T14:51:26.907Z,95460.89
2023-01-08T14:54:06.624Z,95465.48
2023-01-08T14:56:36.760Z,95462.23
2023-01-08T14:59:11.997Z,95460.63
2023-01-08T15:01:40.976Z,95458.55
2023-01-08T15:04:19.548Z,95459.73
2023-01-08T15:06:49.316Z,95459.85
2023-01-08T15:09:22.892Z,95453.56
2023-01-08T15:12:00.073Z,95450.34
2023-01-08T15:14:31.160Z,95446.73
2023-01-08T15:17:08.219Z,95443.66
2023-01-08T15:19:46.708Z,95450.31
2023-01-08T15:22:22.989Z,95451.27
2023-01-08T15:25:03.871Z,95447.52
2023-01-08T15:27:34.526Z,95437.77
2023-01-08T15:30:04.641Z,95437.04
2023-01-08T15:32:37.295Z,95446.26
2023-01-08T15:35:17.303Z,95451.25
2023-01-08T15:37:46.004Z,95439.89
2023-01-08T15:40:14.288Z,95443.66
2023-01-08T15:43:03.110Z,95439.94
2023-01-08T15:45:34.363Z,95437.36
2023-01-08T15:48:05.589Z,95432.14
2023-01-08T15:50:39.136Z,95431.18
2023-01-08T15:53:15.854Z,95432.66
2023-01-08T15:55:46.697Z,95433.79
2023-01-08T15:58:15.868Z,95431.11
2023-01-08T16:00:45.914Z,95430.04
2023-01-08T16:03:15.556Z,95428.83
2023-01-08T16:05:43.787Z,95427.62
2023-01-08T16:08:12.755Z,95426.32
2023-01-08T16:10:41.099Z,95427.59
2023-01-08T16:13:11.870Z,95425.85
2023-01-08T16:15:40.347Z,95427.36
2023-01-08T16:18:08.751Z,95425.40
2023-01-08T16:20:37.970Z,95420.95
2023-01-08T16:23:06.768Z,95425.48
2023-01-08T16:25:35.341Z,95423.98
2023-01-08T16:28:03.850Z,95415.42
2023-01-08T16:30:32.345Z,95417.98
2023-01-08T16:33:00.755Z,95412.70
2023-01-08T16:35:29.216Z,95414.70
2023-01-08T16:37:57.651Z,95416.77
2023-01-08T16:40:25.837Z,95421.92
2023-01-08T16:42:54.006Z,95426.23
2023-01-08T16:45:22.149Z,95423.02
2023-01-08T16:47:50.504Z,95419.33
2023-01-08T16:50:18.828Z,95418.87
2023-01-08T16:52:46.959Z,95412.73
2023-01-08T16:55:15.122Z,95417.71
2023-01-08T16:57:43.329Z,95426.34
2023-01-08T17:00:11.923Z,95423.73
2023-01-08T17:02:40.106Z,95418.50
2023-01-08T17:05:08.536Z,95412.02
2023-01-08T17:07:37.444Z,95413.08
2023-01-08T17:10:06.179Z,95418.48
2023-01-08T17:12:34.865Z,95424.43
2023-01-08T17:15:03.164Z,95428.73
2023-01-08T17:17:31.891Z,95422.88
2023-01-08T17:20:00.113Z,95412.27
2023-01-08T17:22:28.223Z,95414.42
2023-01-08T17:24:56.342Z,95430.65
2023-01-08T17:27:26.111Z,95431.70
2023-01-08T17:29:54.511Z,95424.35
2023-01-08T17:32:22.933Z,95417.20
2023-01-08T17:34:50.996Z,95424.61
2023-01-08T17:37:19.068Z,95415.77
2023-01-08T17:39:48.641Z,95410.37
2023-01-08T17:42:26.979Z,95410.27
2023-01-08T17:44:58.079Z,95412.67
2023-01-08T17:47:26.873Z,95418.05
2023-01-08T17:49:57.084Z,95410.85
2023-01-08T17:52:25.872Z,95405.51
2023-01-08T17:54:54.022Z,95402.69
2023-01-08T17:57:22.644Z,95410.28
2023-01-08T17:59:50.954Z,95412.79
2023-01-08T18:02:19.291Z,95402.85
2023-01-08T18:04:48.442Z,95408.29
2023-01-08T18:07:18.307Z,95408.41
2023-01-08T18:09:49.401Z,95396.23
2023-01-08T18:12:18.251Z,95400.48
2023-01-08T18:14:46.333Z,95404.91
2023-01-08T18:17:14.545Z,95404.42
2023-01-08T18:19:42.701Z,95400.70
2023-01-08T18:22:10.837Z,95399.38
2023-01-08T18:24:39.080Z,95399.71
2023-01-08T18:27:07.346Z,95410.11
2023-01-08T18:29:35.481Z,95401.34
2023-01-08T18:32:03.621Z,95391.79
2023-01-08T18:34:32.539Z,95382.88
2023-01-08T18:37:01.782Z,95385.30
2023-01-08T18:39:31.065Z,95385.73
2023-01-08T18:42:17.900Z,95379.39
2023-01-08T18:44:46.132Z,95384.35
2023-01-08T18:47:15.649Z,95382.75
2023-01-08T18:49:43.889Z,95381.99
2023-01-08T18:52:14.176Z,95377.29
2023-01-08T18:54:42.581Z,95372.77
2023-01-08T18:57:10.792Z,95373.54
2023-01-08T18:59:38.942Z,95368.32
2023-01-08T19:02:07.966Z,95357.85
2023-01-08T19:04:36.276Z,95354.81
2023-01-08T19:07:04.664Z,95355.89
2023-01-08T19:09:32.729Z,95359.20
2023-01-08T19:12:01.070Z,95360.20
2023-01-08T19:14:29.809Z,95358.34
2023-01-08T19:16:58.518Z,95357.77
2023-01-08T19:19:28.071Z,95358.08
2023-01-08T19:21:57.254Z,95357.86
2023-01-08T19:24:25.602Z,95355.67
2023-01-08T19:26:53.848Z,95357.10
2023-01-08T19:29:22.031Z,95360.95
2023-01-08T19:31:51.014Z,95362.45
2023-01-08T19:34:19.418Z,95360.36
2023-01-08T19:36:48.682Z,95361.17
2023-01-08T19:39:16.812Z,95360.25
2023-01-08T19:42:03.765Z,95357.54
2023-01-08T19:44:31.996Z,95354.48
2023-01-08T19:47:00.935Z,95354.70
2023-01-08T19:49:29.206Z,95351.23
2023-01-08T19:51:57.305Z,95347.33
2023-01-08T19:54:26.129Z,95351.71
2023-01-08T19:56:55.213Z,95353.73
2023-01-08T19:59:24.832Z,95346.23
2023-01-08T20:01:53.092Z,95345.48
2023-01-08T20:04:21.956Z,95341.94
2023-01-08T20:06:52.413Z,95336.17
2023-01-08T20:09:20.509Z,95334.30
2023-01-08T20:11:48.831Z,95330.02
2023-01-08T20:14:17.277Z,95331.46
2023-01-08T20:16:46.497Z,95325.67
2023-01-08T20:19:14.630Z,95324.17
2023-01-08T20:21:42.814Z,95319.70
2023-01-08T20:24:15.079Z,95313.59
2023-01-08T20:26:45.496Z,95313.23
2023-01-08T20:29:16.599Z,95316.41
2023-01-08T20:31:45.246Z,95309.29
2023-01-08T20:34:15.990Z,95307.14
2023-01-08T20:36:44.917Z,95305.27
2023-01-08T20:39:15.643Z,95305.62
2023-01-08T20:41:50.349Z,95303.86
2023-01-08T20:44:33.286Z,95305.02
2023-01-08T20:47:02.129Z,95303.05
2023-01-08T20:49:30.724Z,95298.94
2023-01-08T20:52:01.270Z,95295.04
2023-01-08T20:54:30.316Z,95298.20
2023-01-08T20:57:00.417Z,95294.00
2023-01-08T20:59:29.594Z,95294.13
2023-01-08T21:01:57.920Z,95292.70
2023-01-08T21:04:26.224Z,95294.58
2023-01-08T21:06:54.502Z,95293.41
2023-01-08T21:09:22.895Z,95291.06
2023-01-08T21:11:51.054Z,95287.48
2023-01-08T21:14:19.437Z,95287.79
2023-01-08T21:16:47.996Z,95282.86
2023-01-08T21:19:16.315Z,95283.27
2023-01-08T21:21:45.815Z,95281.34
2023-01-08T21:24:15.443Z,95276.86
2023-01-08T21:26:45.858Z,95275.73
2023-01-08T21:29:19.898Z,95274.44
2023-01-08T21:31:48.273Z,95272.10
2023-01-08T21:34:16.440Z,95271.89
2023-01-08T21:36:44.506Z,95269.14
2023-01-08T21:39:12.770Z,95263.90
2023-01-08T21:41:59.609Z,95263.60
2023-01-08T21:44:46.587Z,95263.54
2023-01-08T21:47:17.318Z,95264.58
2023-01-08T21:49:46.380Z,95263.45
2023-01-08T21:52:34.113Z,95263.39
2023-01-08T21:55:04.630Z,95262.27
2023-01-08T21:57:39.288Z,95260.92
2023-01-08T22:00:08.239Z,95261.46
2023-01-08T22:02:37.214Z,95256.77
2023-01-08T22:05:06.831Z,95256.14
2023-01-08T22:07:35.528Z,95257.39
2023-01-08T22:10:05.647Z,95259.67
2023-01-08T22:12:33.848Z,95260.77
2023-01-08T22:15:03.604Z,95255.19
2023-01-08T22:17:31.842Z,95251.46
2023-01-08T22:20:01.495Z,95249.21
2023-01-08T22:22:29.786Z,95245.63
2023-01-08T22:24:57.899Z,95242.38
2023-01-08T22:27:26.454Z,95236.77
2023-01-08T22:29:54.765Z,95234.95
2023-01-08T22:32:22.862Z,95232.04
2023-01-08T22:34:51.010Z,95226.27
2023-01-08T22:37:21.899Z,95217.17
2023-01-08T22:39:50.171Z,95215.45
2023-01-08T22:42:18.538Z,95209.88
2023-01-08T22:44:50.319Z,95206.79
2023-01-08T22:47:18.369Z,95202.95
2023-01-08T22:49:48.550Z,95194.56
2023-01-08T22:52:17.101Z,95188.97
2023-01-08T22:54:45.251Z,95187.71
2023-01-08T22:57:13.418Z,95191.44
2023-01-08T22:59:41.585Z,95194.84
2023-01-08T23:02:09.668Z,95195.98
2023-01-08T23:04:38.031Z,95193.83
2023-01-08T23:07:06.131Z,95189.64
2023-01-08T23:09:34.208Z,95190.80
2023-01-08T23:12:02.500Z,95194.98
2023-01-08T23:14:30.695Z,95193.60
2023-01-08T23:16:58.978Z,95194.48
2023-01-08T23:19:27.201Z,95194.64
2023-01-08T23:21:55.326Z,95191.36
2023-01-08T23:24:23.468Z,95190.00
2023-01-08T23:26:51.601Z,95189.16
2023-01-08T23:29:20.050Z,95182.23
2023-01-08T23:31:50.131Z,95182.59
2023-01-08T23:34:18.323Z,95179.22
2023-01-08T23:36:47.263Z,95175.20
2023-01-08T23:39:15.432Z,95169.34
2023-01-08T23:41:43.590Z,95167.04
2023-01-08T23:44:14.065Z,95171.52
2023-01-08T23:46:42.329Z,95166.52
2023-01-08T23:49:11.059Z,95166.86
2023-01-08T23:51:42.291Z,95161.55
2023-01-08T23:54:11.768Z,95158.17
2023-01-08T23:56:41.206Z,95160.63
2023-01-08T23:59:11.979Z,95161.17
